Vienna, Louisiana
Current Conditions -  °F | °C
As of 1:55 PM on Saturday 25 Oct 2014 (Local Time) from KRSN Reporting Station
Clear Clear  
Wind Chill: 80°   Ceiling: Unl
Heat Index: 80°   Visibility: 10mi
Dew Point: 58°   Wind: 3mph
Humidity: 47%   Direction: 290°WNW
Pressure: 30.15"   Gusts: NA
Location:  32.5075°N, 92.6828°W
Report Text: KRSN 251855Z AUTO 29003KT 10SM CLR 27/15 A3015 RMK AO2 T02650145
Loading
Personal Weather Stations






























Interactive Weather Map
Tropical Storm Tracking
New forecast layout! Learn more

10-Day Weather Forecast

Advertisements
Track Severe Weather on mobile